createdAt,value
2023-02-21T00:00:26.004Z,10.72
2023-02-21T00:05:06.185Z,10.76
2023-02-21T00:09:26.223Z,10.71
2023-02-21T00:13:46.227Z,10.73
2023-02-21T00:18:06.296Z,10.73
2023-02-21T00:22:26.404Z,10.65
2023-02-21T00:26:46.741Z,10.65
2023-02-21T00:31:07.103Z,10.60
2023-02-21T00:35:27.271Z,10.61
2023-02-21T00:39:47.338Z,10.58
2023-02-21T00:44:07.359Z,10.62
2023-02-21T00:48:27.423Z,10.60
2023-02-21T00:52:47.432Z,10.62
2023-02-21T00:57:07.617Z,10.58
2023-02-21T01:01:27.740Z,10.56
2023-02-21T01:05:48.294Z,10.53
2023-02-21T01:10:09.538Z,10.45
2023-02-21T01:14:31.448Z,10.40
2023-02-21T01:18:52.695Z,10.37
2023-02-21T01:23:13.509Z,10.35
2023-02-21T01:27:33.608Z,10.31
2023-02-21T01:31:54.274Z,10.23
2023-02-21T01:36:14.711Z,10.20
2023-02-21T01:40:35.229Z,10.17
2023-02-21T01:45:06.055Z,10.10
2023-02-21T01:49:36.152Z,10.09
2023-02-21T01:53:56.270Z,10.08
2023-02-21T01:58:16.832Z,10.04
2023-02-21T02:03:03.360Z,10.02
2023-02-21T02:07:24.154Z,10.03
2023-02-21T02:12:17.171Z,10.05
2023-02-21T02:16:40.908Z,10.09
2023-02-21T02:21:20.244Z,10.09
2023-02-21T02:25:59.893Z,10.10
2023-02-21T02:30:01.563Z,10.06
2023-02-21T02:34:21.933Z,10.07
2023-02-21T02:38:23.853Z,10.09
2023-02-21T02:42:41.054Z,10.16
2023-02-21T02:46:46.827Z,10.09
2023-02-21T02:50:51.641Z,10.12
2023-02-21T02:55:05.268Z,10.11
2023-02-21T02:59:14.016Z,10.08
2023-02-21T03:03:24.625Z,10.13
2023-02-21T03:07:41.316Z,10.08
2023-02-21T03:11:58.920Z,10.10
2023-02-21T03:16:49.928Z,10.11
2023-02-21T03:20:58.019Z,10.12
2023-02-21T03:25:02.392Z,10.15
2023-02-21T03:29:04.369Z,10.16
2023-02-21T03:33:06.059Z,10.26
2023-02-21T03:37:10.387Z,10.23
2023-02-21T03:41:12.936Z,10.24
2023-02-21T03:45:14.777Z,10.32
2023-02-21T03:49:16.374Z,10.29
2023-02-21T03:53:17.941Z,10.37
2023-02-21T03:57:19.516Z,10.34
2023-02-21T04:01:21.291Z,10.37
2023-02-21T04:05:22.841Z,10.37
2023-02-21T04:09:25.897Z,10.45
2023-02-21T04:13:27.462Z,10.46
2023-02-21T04:17:29.026Z,10.44
2023-02-21T04:21:30.908Z,10.37
2023-02-21T04:25:36.467Z,10.35
2023-02-21T04:29:38.399Z,10.31
2023-02-21T04:33:40.207Z,10.26
2023-02-21T04:37:44.048Z,10.26
2023-02-21T04:41:46.032Z,10.25
2023-02-21T04:45:47.921Z,10.27
2023-02-21T04:49:51.892Z,10.30
2023-02-21T04:53:54.795Z,10.31
2023-02-21T04:57:56.581Z,10.25
2023-02-21T05:02:01.177Z,10.28
2023-02-21T05:06:04.918Z,10.27
2023-02-21T05:10:07.519Z,10.25
2023-02-21T05:14:10.292Z,10.20
2023-02-21T05:18:12.345Z,10.18
2023-02-21T05:22:19.693Z,10.23
2023-02-21T05:26:24.834Z,10.19
2023-02-21T05:30:26.821Z,10.24
2023-02-21T05:34:28.513Z,10.26
2023-02-21T05:38:30.512Z,10.25
2023-02-21T05:42:32.876Z,10.17
2023-02-21T05:46:34.914Z,10.16
2023-02-21T05:50:38.967Z,10.13
2023-02-21T05:54:40.889Z,10.10
2023-02-21T05:58:44.181Z,10.19
2023-02-21T06:02:46.241Z,10.12
2023-02-21T06:06:48.155Z,10.15
2023-02-21T06:10:49.920Z,10.13
2023-02-21T06:14:52.279Z,10.10
2023-02-21T06:18:56.350Z,10.18
2023-02-21T06:22:58.075Z,10.24
2023-02-21T06:26:59.544Z,10.26
2023-02-21T06:31:01.355Z,10.26
2023-02-21T06:35:04.302Z,10.31
2023-02-21T06:39:07.523Z,10.32
2023-02-21T06:43:09.786Z,10.35
2023-02-21T06:47:11.572Z,10.26
2023-02-21T06:51:14.069Z,10.16
2023-02-21T06:55:25.017Z,10.10
2023-02-21T06:59:30.251Z,10.05
2023-02-21T07:03:31.812Z,10.10
2023-02-21T07:07:33.528Z,10.21
2023-02-21T07:11:35.883Z,10.23
2023-02-21T07:15:38.465Z,10.16
2023-02-21T07:19:41.580Z,10.14
2023-02-21T07:23:44.495Z,10.05
2023-02-21T07:27:49.855Z,10.11
2023-02-21T07:31:52.632Z,10.17
2023-02-21T07:35:54.722Z,10.16
2023-02-21T07:39:56.796Z,10.29
2023-02-21T07:43:58.718Z,10.40
2023-02-21T07:48:00.605Z,10.46
2023-02-21T07:52:02.364Z,10.41
2023-02-21T07:56:04.520Z,10.46
2023-02-21T08:00:06.957Z,10.49
2023-02-21T08:04:08.901Z,10.57
2023-02-21T08:08:10.791Z,10.67
2023-02-21T08:12:12.343Z,10.74
2023-02-21T08:16:14.970Z,10.81
2023-02-21T08:20:17.687Z,10.92
2023-02-21T08:24:19.469Z,11.07
2023-02-21T08:28:21.420Z,11.15
2023-02-21T08:32:23.205Z,11.16
2023-02-21T08:36:33.986Z,11.06
2023-02-21T08:40:36.085Z,11.04
2023-02-21T08:44:37.688Z,10.95
2023-02-21T08:48:39.278Z,10.96
2023-02-21T08:52:41.565Z,11.07
2023-02-21T08:56:43.245Z,11.09
2023-02-21T09:00:44.938Z,11.06
2023-02-21T09:04:47.193Z,10.97
2023-02-21T09:08:48.800Z,10.96
2023-02-21T09:12:50.561Z,10.96
2023-02-21T09:16:52.333Z,11.01
2023-02-21T09:20:57.344Z,11.10
2023-02-21T09:25:00.267Z,11.23
2023-02-21T09:29:01.910Z,11.33
2023-02-21T09:33:03.511Z,11.37
2023-02-21T09:37:05.626Z,11.38
2023-02-21T09:41:10.317Z,11.15
2023-02-21T09:45:16.649Z,10.91
2023-02-21T09:49:26.393Z,10.54
2023-02-21T09:53:34.584Z,10.49
2023-02-21T09:57:36.704Z,10.59
2023-02-21T10:02:18.154Z,10.58
2023-02-21T10:06:28.843Z,10.47
2023-02-21T10:10:38.946Z,10.53
2023-02-21T10:15:11.614Z,10.60
2023-02-21T10:19:21.964Z,10.68
2023-02-21T10:23:31.705Z,10.79
2023-02-21T10:27:34.901Z,10.92
2023-02-21T10:31:41.805Z,10.94
2023-02-21T10:35:43.613Z,11.06
2023-02-21T10:39:51.084Z,11.18
2023-02-21T10:43:58.812Z,11.15
2023-02-21T10:48:05.102Z,10.99
2023-02-21T10:52:06.640Z,10.97
2023-02-21T10:56:08.377Z,11.00
2023-02-21T11:00:25.694Z,10.99
2023-02-21T11:04:33.928Z,10.97
2023-02-21T11:08:41.818Z,10.88
2023-02-21T11:12:43.646Z,10.72
2023-02-21T11:16:45.478Z,10.57
2023-02-21T11:20:49.715Z,10.54
2023-02-21T11:24:51.329Z,10.53
2023-02-21T11:28:53.114Z,10.52
2023-02-21T11:32:57.340Z,10.60
2023-02-21T11:37:04.150Z,10.59
2023-02-21T11:41:21.248Z,10.63
2023-02-21T11:45:30.100Z,10.64
2023-02-21T11:49:32.293Z,10.81
2023-02-21T11:53:41.894Z,10.94
2023-02-21T11:58:03.865Z,11.31
2023-02-21T12:02:24.179Z,11.60
2023-02-21T12:06:29.150Z,11.87
2023-02-21T12:10:56.409Z,11.96
2023-02-21T12:15:27.627Z,11.98
2023-02-21T12:19:50.992Z,11.96
2023-02-21T12:23:58.934Z,11.98
2023-02-21T12:28:37.727Z,12.04
2023-02-21T12:33:07.401Z,12.06
2023-02-21T12:37:36.991Z,12.02
2023-02-21T12:42:06.493Z,12.11
2023-02-21T12:46:17.659Z,12.10
2023-02-21T12:50:26.512Z,12.00
2023-02-21T12:54:34.168Z,12.01
2023-02-21T12:58:52.078Z,11.98
2023-02-21T13:03:17.074Z,11.85
2023-02-21T13:07:36.386Z,11.76
2023-02-21T13:12:00.475Z,11.85
2023-02-21T13:16:05.494Z,11.94
2023-02-21T13:20:17.360Z,11.99
2023-02-21T13:24:31.227Z,12.03
2023-02-21T13:28:36.089Z,11.93
2023-02-21T13:32:39.797Z,11.76
2023-02-21T13:36:44.489Z,11.66
2023-02-21T13:41:15.960Z,11.85
2023-02-21T13:45:23.074Z,12.16
2023-02-21T13:49:40.818Z,12.34
2023-02-21T13:54:09.023Z,12.31
2023-02-21T13:58:10.472Z,12.32
2023-02-21T14:02:21.256Z,12.28
2023-02-21T14:06:35.205Z,12.41
2023-02-21T14:11:06.174Z,12.54
2023-02-21T14:15:08.887Z,12.49
2023-02-21T14:19:17.424Z,12.33
2023-02-21T14:23:19.998Z,12.16
2023-02-21T14:27:21.587Z,12.02
2023-02-21T14:31:46.985Z,11.97
2023-02-21T14:36:12.445Z,11.84
2023-02-21T14:40:17.667Z,11.75
2023-02-21T14:44:49.608Z,11.60
2023-02-21T14:49:00.178Z,11.52
2023-02-21T14:53:31.234Z,11.43
2023-02-21T14:57:54.528Z,11.35
2023-02-21T15:02:00.308Z,11.32
2023-02-21T15:06:10.816Z,11.29
2023-02-21T15:10:24.928Z,11.26
2023-02-21T15:14:30.086Z,11.19
2023-02-21T15:18:34.768Z,11.11
2023-02-21T15:22:36.634Z,11.06
2023-02-21T15:26:38.679Z,10.99
2023-02-21T15:30:41.976Z,11.01
2023-02-21T15:34:49.154Z,10.97
2023-02-21T15:39:02.432Z,10.85
2023-02-21T15:43:06.127Z,10.88
2023-02-21T15:47:11.989Z,10.83
2023-02-21T15:51:14.105Z,10.79
2023-02-21T15:55:18.860Z,10.79
2023-02-21T15:59:26.883Z,10.75
2023-02-21T16:03:41.752Z,10.76
2023-02-21T16:07:48.448Z,10.73
2023-02-21T16:12:11.201Z,10.67
2023-02-21T16:16:13.017Z,10.55
2023-02-21T16:20:21.815Z,10.45
2023-02-21T16:24:30.357Z,10.35
2023-02-21T16:28:33.024Z,10.24
2023-02-21T16:32:35.178Z,10.25
2023-02-21T16:36:38.546Z,10.12
2023-02-21T16:40:40.243Z,10.05
2023-02-21T16:44:47.262Z,9.97
2023-02-21T16:48:49.510Z,9.90
2023-02-21T16:52:51.206Z,9.82
2023-02-21T16:56:53.407Z,9.76
2023-02-21T17:00:57.780Z,9.73
2023-02-21T17:05:00.088Z,9.70
2023-02-21T17:09:01.922Z,9.64
2023-02-21T17:13:03.557Z,9.63
2023-02-21T17:17:05.867Z,9.58
2023-02-21T17:21:07.359Z,9.57
2023-02-21T17:25:09.992Z,9.59
2023-02-21T17:29:12.669Z,9.57
2023-02-21T17:33:15.314Z,9.53
2023-02-21T17:37:17.034Z,9.56
2023-02-21T17:41:19.364Z,9.56
2023-02-21T17:45:22.009Z,9.52
2023-02-21T17:49:26.065Z,9.50
2023-02-21T17:53:28.055Z,9.50
2023-02-21T17:57:34.425Z,9.53
2023-02-21T18:01:35.819Z,9.53
2023-02-21T18:05:37.515Z,9.50
2023-02-21T18:09:39.362Z,9.45
2023-02-21T18:13:41.090Z,9.40
2023-02-21T18:17:42.541Z,9.37
2023-02-21T18:21:47.328Z,9.31
2023-02-21T18:25:48.846Z,9.29
2023-02-21T18:29:55.176Z,9.36
2023-02-21T18:33:56.680Z,9.39
2023-02-21T18:37:58.411Z,9.42
2023-02-21T18:42:00.720Z,9.32
2023-02-21T18:46:02.510Z,9.33
2023-02-21T18:50:05.843Z,9.29
2023-02-21T18:54:08.312Z,9.26
2023-02-21T18:58:10.585Z,9.22
2023-02-21T19:02:14.694Z,9.22
2023-02-21T19:06:18.220Z,9.21
2023-02-21T19:10:22.327Z,9.18
2023-02-21T19:14:24.087Z,9.14
2023-02-21T19:18:25.965Z,9.09
2023-02-21T19:22:30.753Z,9.11
2023-02-21T19:26:32.711Z,9.10
2023-02-21T19:30:36.346Z,9.09
2023-02-21T19:34:38.328Z,9.07
2023-02-21T19:38:40.531Z,8.99
2023-02-21T19:42:42.378Z,8.98
2023-02-21T19:46:44.277Z,8.89
2023-02-21T19:50:47.224Z,8.73
2023-02-21T19:54:48.938Z,8.63
2023-02-21T19:58:52.315Z,8.49
2023-02-21T20:02:54.297Z,8.33
2023-02-21T20:06:57.251Z,8.17
2023-02-21T20:10:58.994Z,8.16
2023-02-21T20:15:00.701Z,8.24
2023-02-21T20:19:02.832Z,8.27
2023-02-21T20:23:04.687Z,8.35
2023-02-21T20:27:06.408Z,8.44
2023-02-21T20:31:10.194Z,8.37
2023-02-21T20:35:12.684Z,8.12
2023-02-21T20:39:21.417Z,7.98
2023-02-21T20:43:23.192Z,7.89
2023-02-21T20:47:24.784Z,7.91
2023-02-21T20:51:35.444Z,7.97
2023-02-21T20:55:37.230Z,7.87
2023-02-21T20:59:39.017Z,7.74
2023-02-21T21:03:41.649Z,7.67
2023-02-21T21:07:44.756Z,7.80
2023-02-21T21:11:46.841Z,7.90
2023-02-21T21:15:48.377Z,7.99
2023-02-21T21:19:50.427Z,8.09
2023-02-21T21:23:52.721Z,8.11
2023-02-21T21:27:54.475Z,8.09
2023-02-21T21:31:57.992Z,8.04
2023-02-21T21:36:01.806Z,7.97
2023-02-21T21:40:15.429Z,7.89
2023-02-21T21:44:22.526Z,7.81
2023-02-21T21:48:24.201Z,7.79
2023-02-21T21:52:26.066Z,7.78
2023-02-21T21:56:29.834Z,7.53
2023-02-21T22:00:40.617Z,7.37
2023-02-21T22:04:42.812Z,7.21
2023-02-21T22:08:44.628Z,7.01
2023-02-21T22:12:49.365Z,6.88
2023-02-21T22:16:52.676Z,6.89
2023-02-21T22:20:55.227Z,6.78
2023-02-21T22:24:57.017Z,6.75
2023-02-21T22:28:59.312Z,6.77
2023-02-21T22:33:01.391Z,6.79
2023-02-21T22:37:03.406Z,6.74
2023-02-21T22:41:05.303Z,6.79
2023-02-21T22:45:09.176Z,6.81
2023-02-21T22:49:11.676Z,6.95
2023-02-21T22:53:18.088Z,7.02
2023-02-21T22:57:19.816Z,7.10
2023-02-21T23:01:25.791Z,7.12
2023-02-21T23:05:27.970Z,7.10
2023-02-21T23:09:32.295Z,7.09
2023-02-21T23:13:34.137Z,7.08
2023-02-21T23:17:36.787Z,7.03
2023-02-21T23:21:49.858Z,6.99
2023-02-21T23:25:53.288Z,7.01
2023-02-21T23:29:55.320Z,7.14
2023-02-21T23:33:57.108Z,7.19
2023-02-21T23:37:59.480Z,7.24
2023-02-21T23:42:01.167Z,7.29
2023-02-21T23:46:08.350Z,7.36
2023-02-21T23:50:16.706Z,7.39
2023-02-21T23:54:20.434Z,7.39
2023-02-21T23:58:24.079Z,7.31
